Portada
METAR-TAF:

METAR-TAF

Aeroports :

Islamabad, Pakistan

latitud: 33-32-57N, longitud: 072-49-32E, altitud: 537 m

Observació

L'informe es va fer fa 38 minuts, a les 10:55 UTC
Vent 8 kt del Nord-Oest
Temperatura 29°C
Humitat 27%
Pressió 1008 hPa
Visibilitat: 6000 m

METAR: OPIS 231055Z 31008KT 6000 NSC 29/08 Q1008 NOSIG

Hora: 16:33 (11:33 UTC)

Pronòstic

L'informe es va fer fa 8 hores i 3 minuts, a les 03:30 UTC
Pronòstic vàlid del 23 a les 06 UTC al 24 a les 12 UTC
Vent 6 kt del Sud-Est
Visibilitat: 5000 m
calitja
Temporalment
l' 23 a les 08 UTC al 23 a les 12 UTC
Vent 8 kt del Nord-Oest
Visibilitat: 6000 m
Temporalment
l' 23 a les 23 UTC al 24 a les 03 UTC
Vent 5 kt del Est
Visibilitat: 2000 m
fum
A partir de les 24 a les 0700 UTC
Vent 8 kt del Nord-Oest
Visibilitat: 6000 m

TAF: OPIS 230330Z 2306/2412 13006KT 5000 HZ NSC TEMPO 2308/2312 31008KT 6000 TEMPO 2323/2403 09005KT 2000 FU FM240700 31008KT 6000 NSC

Observacions i pronòstics meteorològics de més de 4000 aeroports (METAR i TAF).

Les estacions disponibles són els punts grocs i vermells al mapa.

Posi el ratolí al punt desitjat per veure el nom de l'estació.

Feu clic per veure les observacions i els pronòstics meteorològics.

Per canviar el mapa: feu clic els botons verds amb una creu de color negre per apropar; al botó verd amb un guió per allunyar la imatge; o en les fletxes verdes per a mapes adjacents.


METAR-TAF: